メインページ
METAR-TAF:

METAR-TAF

空港 :

ラロトンガ国際空港

ラロトンガ島, クック諸島

緯度: 21-12S, 経度: 159-49W, 海抜: 7m

現時点の気象観測

当レポートは30分前の03:30(UTC)に作成
北東の風 5kt、から東/北東の間で変化する
気温 28°C
湿度 84%
気圧 1011 hPa
視程10km以上

METAR: NCRG 250330Z AUTO 04005KT 360V070 9999 FEW013/// 28/25 Q1011

時間: 18:00 (04:00 UTC)

予報

当レポートは4時間35分前の23:25(UTC)に作成
予報は25日の 00時(UTC)から 25日の 24時(UTC)まで有効
東/北東の風 10kt
視程10km以上
高度2500ftの雲はほとんどない
高度5000ftの雲は散在している
確率 30% :
25日の 00時(UTC)から 25日の 24時(UTC)まで一時的に
視程: 5000m
高度1500ftの千切れ雲あり
にわか雨

TAF: NCRG 242325Z 2500/2524 06010KT 9999 FEW025 SCT050 PROB30 TEMPO 2500/2524 5000 SHRA BKN015

4,000以上の空港の気象観測と天気予報(METAR報とTAF報)

利用可能な観測所は地図上に黄色い丸と赤い丸で示す。

丸の上にカーソルを重ねると観測所名を参照できる。

次にクリックすると気象観測と天気予報を参照できる。

マップの切り替え:黒色「×」印の緑ボタンをクリックして拡大、「-」印の緑ボタンをクリックして縮小、緑色の三角印をクリックして隣りの地図に切り替え


METAR-TAF: